sensor_id;sensor_type;location;lat;lon;timestamp;P1;durP1;ratioP1;P2;durP2;ratioP2
52574;SDS011;38468;48.114;-1.684;2022-12-07T00:00:21;23.20;;;15.45;;
52574;SDS011;38468;48.114;-1.684;2022-12-07T00:02:22;21.80;;;14.75;;
52574;SDS011;38468;48.114;-1.684;2022-12-07T00:04:23;21.33;;;14.82;;
52574;SDS011;38468;48.114;-1.684;2022-12-07T00:06:23;20.70;;;13.52;;
52574;SDS011;38468;48.114;-1.684;2022-12-07T00:08:24;19.38;;;13.57;;
52574;SDS011;38468;48.114;-1.684;2022-12-07T00:10:25;23.23;;;14.65;;
52574;SDS011;38468;48.114;-1.684;2022-12-07T00:12:25;21.90;;;14.55;;
52574;SDS011;38468;48.114;-1.684;2022-12-07T00:14:26;22.20;;;13.10;;
52574;SDS011;38468;48.114;-1.684;2022-12-07T00:16:28;19.58;;;12.63;;
52574;SDS011;38468;48.114;-1.684;2022-12-07T00:18:31;19.02;;;13.00;;
52574;SDS011;38468;48.114;-1.684;2022-12-07T00:20:32;18.52;;;12.77;;
52574;SDS011;38468;48.114;-1.684;2022-12-07T00:22:33;22.05;;;13.63;;
52574;SDS011;38468;48.114;-1.684;2022-12-07T00:24:33;18.25;;;12.32;;
52574;SDS011;38468;48.114;-1.684;2022-12-07T00:26:38;17.95;;;12.93;;
52574;SDS011;38468;48.114;-1.684;2022-12-07T00:28:40;19.23;;;12.13;;
52574;SDS011;38468;48.114;-1.684;2022-12-07T00:30:41;18.92;;;12.43;;
52574;SDS011;38468;48.114;-1.684;2022-12-07T00:32:41;18.13;;;12.68;;
52574;SDS011;38468;48.114;-1.684;2022-12-07T00:34:42;18.10;;;12.95;;
52574;SDS011;38468;48.114;-1.684;2022-12-07T00:36:42;17.63;;;12.35;;
52574;SDS011;38468;48.114;-1.684;2022-12-07T00:38:43;19.42;;;13.13;;
52574;SDS011;38468;48.114;-1.684;2022-12-07T00:40:44;19.38;;;13.63;;
52574;SDS011;38468;48.114;-1.684;2022-12-07T00:42:57;19.42;;;12.90;;
52574;SDS011;38468;48.114;-1.684;2022-12-07T00:44:58;19.83;;;13.85;;
52574;SDS011;38468;48.114;-1.684;2022-12-07T00:46:58;17.08;;;12.18;;
52574;SDS011;38468;48.114;-1.684;2022-12-07T00:48:59;20.70;;;13.18;;
52574;SDS011;38468;48.114;-1.684;2022-12-07T00:51:00;18.42;;;12.68;;
52574;SDS011;38468;48.114;-1.684;2022-12-07T00:53:01;17.37;;;12.60;;
52574;SDS011;38468;48.114;-1.684;2022-12-07T00:55:02;20.55;;;13.05;;
52574;SDS011;38468;48.114;-1.684;2022-12-07T00:57:03;22.85;;;14.00;;
52574;SDS011;38468;48.114;-1.684;2022-12-07T00:59:03;23.33;;;13.52;;
52574;SDS011;38468;48.114;-1.684;2022-12-07T01:01:05;18.50;;;12.70;;
52574;SDS011;38468;48.114;-1.684;2022-12-07T01:03:07;24.20;;;12.27;;
52574;SDS011;38468;48.114;-1.684;2022-12-07T01:05:10;19.73;;;13.00;;
52574;SDS011;38468;48.114;-1.684;2022-12-07T01:07:10;19.95;;;12.88;;
52574;SDS011;38468;48.114;-1.684;2022-12-07T01:09:11;23.33;;;14.85;;
52574;SDS011;38468;48.114;-1.684;2022-12-07T01:11:13;21.10;;;13.88;;
52574;SDS011;38468;48.114;-1.684;2022-12-07T01:13:18;21.42;;;13.32;;
52574;SDS011;38468;48.114;-1.684;2022-12-07T01:15:19;20.90;;;13.02;;
52574;SDS011;38468;48.114;-1.684;2022-12-07T01:17:19;20.65;;;13.52;;
52574;SDS011;38468;48.114;-1.684;2022-12-07T01:19:20;20.17;;;13.93;;
52574;SDS011;38468;48.114;-1.684;2022-12-07T01:21:22;23.95;;;14.32;;
52574;SDS011;38468;48.114;-1.684;2022-12-07T01:23:24;26.20;;;15.93;;
52574;SDS011;38468;48.114;-1.684;2022-12-07T01:25:25;19.60;;;13.43;;
52574;SDS011;38468;48.114;-1.684;2022-12-07T01:27:26;22.52;;;13.93;;
52574;SDS011;38468;48.114;-1.684;2022-12-07T01:29:26;21.55;;;13.35;;
52574;SDS011;38468;48.114;-1.684;2022-12-07T01:31:27;17.33;;;13.30;;
52574;SDS011;38468;48.114;-1.684;2022-12-07T01:33:29;19.65;;;13.70;;
52574;SDS011;38468;48.114;-1.684;2022-12-07T01:35:33;21.75;;;13.30;;
52574;SDS011;38468;48.114;-1.684;2022-12-07T01:37:37;20.73;;;13.40;;
52574;SDS011;38468;48.114;-1.684;2022-12-07T01:39:38;20.42;;;13.82;;
52574;SDS011;38468;48.114;-1.684;2022-12-07T01:41:40;23.45;;;15.13;;
52574;SDS011;38468;48.114;-1.684;2022-12-07T01:46:19;21.70;;;14.52;;
52574;SDS011;38468;48.114;-1.684;2022-12-07T01:48:21;22.75;;;14.63;;
52574;SDS011;38468;48.114;-1.684;2022-12-07T01:50:26;20.05;;;13.80;;
52574;SDS011;38468;48.114;-1.684;2022-12-07T01:52:30;18.33;;;13.90;;
52574;SDS011;38468;48.114;-1.684;2022-12-07T01:54:33;21.98;;;14.52;;
52574;SDS011;38468;48.114;-1.684;2022-12-07T01:56:35;24.08;;;15.15;;
52574;SDS011;38468;48.114;-1.684;2022-12-07T01:58:37;26.25;;;14.95;;
52574;SDS011;38468;48.114;-1.684;2022-12-07T02:00:38;20.58;;;14.57;;
52574;SDS011;38468;48.114;-1.684;2022-12-07T02:02:41;24.30;;;15.35;;
52574;SDS011;38468;48.114;-1.684;2022-12-07T02:04:46;22.60;;;15.25;;
52574;SDS011;38468;48.114;-1.684;2022-12-07T02:06:47;18.45;;;12.95;;
52574;SDS011;38468;48.114;-1.684;2022-12-07T02:08:49;20.27;;;14.77;;
52574;SDS011;38468;48.114;-1.684;2022-12-07T02:10:49;21.98;;;14.98;;
52574;SDS011;38468;48.114;-1.684;2022-12-07T02:12:51;22.70;;;14.10;;
52574;SDS011;38468;48.114;-1.684;2022-12-07T02:14:55;27.90;;;15.45;;
52574;SDS011;38468;48.114;-1.684;2022-12-07T02:31:44;32.92;;;16.30;;
52574;SDS011;38468;48.114;-1.684;2022-12-07T02:33:57;23.83;;;14.57;;
52574;SDS011;38468;48.114;-1.684;2022-12-07T02:36:26;26.52;;;15.50;;
52574;SDS011;38468;48.114;-1.684;2022-12-07T02:39:06;21.67;;;13.70;;
52574;SDS011;38468;48.114;-1.684;2022-12-07T02:41:22;25.10;;;15.13;;
52574;SDS011;38468;48.114;-1.684;2022-12-07T02:43:26;23.55;;;14.32;;
52574;SDS011;38468;48.114;-1.684;2022-12-07T02:45:34;21.45;;;13.73;;
52574;SDS011;38468;48.114;-1.684;2022-12-07T02:47:38;23.45;;;13.38;;
52574;SDS011;38468;48.114;-1.684;2022-12-07T02:49:41;24.88;;;16.20;;
52574;SDS011;38468;48.114;-1.684;2022-12-07T02:51:43;21.30;;;14.55;;
52574;SDS011;38468;48.114;-1.684;2022-12-07T02:53:46;24.60;;;15.55;;
52574;SDS011;38468;48.114;-1.684;2022-12-07T02:55:46;24.58;;;14.82;;
52574;SDS011;38468;48.114;-1.684;2022-12-07T03:06:31;24.45;;;14.35;;
52574;SDS011;38468;48.114;-1.684;2022-12-07T03:08:57;20.90;;;13.60;;
52574;SDS011;38468;48.114;-1.684;2022-12-07T03:11:07;25.45;;;14.88;;
52574;SDS011;38468;48.114;-1.684;2022-12-07T03:15:27;24.95;;;13.73;;
52574;SDS011;38468;48.114;-1.684;2022-12-07T03:17:43;23.73;;;15.20;;
52574;SDS011;38468;48.114;-1.684;2022-12-07T03:19:46;19.92;;;14.07;;
52574;SDS011;38468;48.114;-1.684;2022-12-07T03:23:58;23.75;;;13.45;;
52574;SDS011;38468;48.114;-1.684;2022-12-07T03:26:03;21.70;;;14.43;;
52574;SDS011;38468;48.114;-1.684;2022-12-07T03:28:06;24.45;;;14.85;;
52574;SDS011;38468;48.114;-1.684;2022-12-07T03:30:10;21.73;;;14.18;;
52574;SDS011;38468;48.114;-1.684;2022-12-07T03:32:24;22.00;;;15.18;;
52574;SDS011;38468;48.114;-1.684;2022-12-07T03:34:36;22.60;;;15.48;;
52574;SDS011;38468;48.114;-1.684;2022-12-07T03:36:51;23.73;;;15.25;;
52574;SDS011;38468;48.114;-1.684;2022-12-07T03:41:22;21.50;;;13.38;;
52574;SDS011;38468;48.114;-1.684;2022-12-07T03:43:28;24.27;;;13.80;;
52574;SDS011;38468;48.114;-1.684;2022-12-07T03:45:40;25.65;;;13.80;;
52574;SDS011;38468;48.114;-1.684;2022-12-07T03:49:52;24.65;;;14.80;;
52574;SDS011;38468;48.114;-1.684;2022-12-07T03:56:30;23.45;;;14.38;;
52574;SDS011;38468;48.114;-1.684;2022-12-07T03:58:32;25.83;;;14.10;;
52574;SDS011;38468;48.114;-1.684;2022-12-07T04:00:34;21.63;;;13.52;;
52574;SDS011;38468;48.114;-1.684;2022-12-07T04:02:35;20.67;;;13.85;;
52574;SDS011;38468;48.114;-1.684;2022-12-07T04:04:36;23.77;;;14.55;;
52574;SDS011;38468;48.114;-1.684;2022-12-07T04:06:37;21.67;;;12.85;;
52574;SDS011;38468;48.114;-1.684;2022-12-07T04:08:38;25.63;;;13.02;;
52574;SDS011;38468;48.114;-1.684;2022-12-07T04:10:38;23.67;;;14.50;;
52574;SDS011;38468;48.114;-1.684;2022-12-07T04:12:39;23.50;;;14.60;;
52574;SDS011;38468;48.114;-1.684;2022-12-07T04:14:40;24.30;;;14.98;;
52574;SDS011;38468;48.114;-1.684;2022-12-07T04:16:41;23.65;;;13.98;;
52574;SDS011;38468;48.114;-1.684;2022-12-07T04:18:41;22.23;;;14.77;;
52574;SDS011;38468;48.114;-1.684;2022-12-07T04:20:42;22.65;;;13.93;;
52574;SDS011;38468;48.114;-1.684;2022-12-07T04:22:43;21.00;;;12.32;;
52574;SDS011;38468;48.114;-1.684;2022-12-07T04:24:44;23.63;;;14.38;;
52574;SDS011;38468;48.114;-1.684;2022-12-07T04:26:44;21.17;;;14.65;;
52574;SDS011;38468;48.114;-1.684;2022-12-07T04:28:46;20.40;;;13.95;;
52574;SDS011;38468;48.114;-1.684;2022-12-07T04:30:47;20.40;;;13.57;;
52574;SDS011;38468;48.114;-1.684;2022-12-07T04:32:47;21.30;;;13.13;;
52574;SDS011;38468;48.114;-1.684;2022-12-07T04:34:48;22.65;;;13.57;;
52574;SDS011;38468;48.114;-1.684;2022-12-07T04:36:48;20.05;;;13.48;;
52574;SDS011;38468;48.114;-1.684;2022-12-07T04:38:49;20.30;;;14.07;;
52574;SDS011;38468;48.114;-1.684;2022-12-07T04:40:52;20.70;;;13.15;;
52574;SDS011;38468;48.114;-1.684;2022-12-07T04:42:53;20.50;;;12.60;;
52574;SDS011;38468;48.114;-1.684;2022-12-07T04:44:54;21.90;;;13.65;;
52574;SDS011;38468;48.114;-1.684;2022-12-07T04:46:54;21.48;;;14.00;;
52574;SDS011;38468;48.114;-1.684;2022-12-07T04:48:57;20.55;;;14.52;;
52574;SDS011;38468;48.114;-1.684;2022-12-07T04:50:57;21.98;;;15.02;;
52574;SDS011;38468;48.114;-1.684;2022-12-07T04:52:58;20.42;;;13.15;;
52574;SDS011;38468;48.114;-1.684;2022-12-07T04:54:59;19.25;;;12.50;;
52574;SDS011;38468;48.114;-1.684;2022-12-07T04:56:59;19.73;;;12.73;;
52574;SDS011;38468;48.114;-1.684;2022-12-07T04:59:00;19.00;;;12.80;;
52574;SDS011;38468;48.114;-1.684;2022-12-07T05:01:02;19.05;;;12.43;;
52574;SDS011;38468;48.114;-1.684;2022-12-07T05:03:02;20.05;;;13.23;;
52574;SDS011;38468;48.114;-1.684;2022-12-07T05:05:03;22.27;;;14.75;;
52574;SDS011;38468;48.114;-1.684;2022-12-07T05:07:04;16.95;;;11.85;;
52574;SDS011;38468;48.114;-1.684;2022-12-07T05:09:04;21.42;;;14.20;;
52574;SDS011;38468;48.114;-1.684;2022-12-07T05:11:05;21.38;;;12.95;;
52574;SDS011;38468;48.114;-1.684;2022-12-07T05:13:07;20.15;;;11.45;;
52574;SDS011;38468;48.114;-1.684;2022-12-07T05:15:07;17.85;;;12.27;;
52574;SDS011;38468;48.114;-1.684;2022-12-07T05:17:08;16.92;;;11.07;;
52574;SDS011;38468;48.114;-1.684;2022-12-07T05:19:11;18.35;;;11.80;;
52574;SDS011;38468;48.114;-1.684;2022-12-07T05:21:12;18.60;;;11.77;;
52574;SDS011;38468;48.114;-1.684;2022-12-07T05:23:13;16.20;;;11.45;;
52574;SDS011;38468;48.114;-1.684;2022-12-07T05:25:13;17.20;;;12.48;;
52574;SDS011;38468;48.114;-1.684;2022-12-07T05:27:14;18.40;;;12.40;;
52574;SDS011;38468;48.114;-1.684;2022-12-07T05:29:15;19.20;;;12.73;;
52574;SDS011;38468;48.114;-1.684;2022-12-07T05:31:17;17.85;;;12.85;;
52574;SDS011;38468;48.114;-1.684;2022-12-07T05:33:17;16.65;;;11.55;;
52574;SDS011;38468;48.114;-1.684;2022-12-07T05:35:18;18.13;;;12.30;;
52574;SDS011;38468;48.114;-1.684;2022-12-07T05:37:19;15.55;;;11.02;;
52574;SDS011;38468;48.114;-1.684;2022-12-07T05:39:20;17.60;;;11.10;;
52574;SDS011;38468;48.114;-1.684;2022-12-07T05:41:20;16.13;;;11.43;;
52574;SDS011;38468;48.114;-1.684;2022-12-07T05:43:39;19.30;;;12.43;;
52574;SDS011;38468;48.114;-1.684;2022-12-07T05:45:40;17.25;;;11.73;;
52574;SDS011;38468;48.114;-1.684;2022-12-07T05:47:41;17.23;;;12.30;;
52574;SDS011;38468;48.114;-1.684;2022-12-07T05:49:42;15.20;;;10.93;;
52574;SDS011;38468;48.114;-1.684;2022-12-07T05:51:42;22.55;;;12.63;;
52574;SDS011;38468;48.114;-1.684;2022-12-07T05:53:43;19.98;;;12.20;;
52574;SDS011;38468;48.114;-1.684;2022-12-07T05:55:44;19.08;;;12.27;;
52574;SDS011;38468;48.114;-1.684;2022-12-07T05:57:45;23.23;;;14.18;;
52574;SDS011;38468;48.114;-1.684;2022-12-07T06:00:06;18.67;;;12.20;;
52574;SDS011;38468;48.114;-1.684;2022-12-07T06:02:08;18.67;;;12.27;;
52574;SDS011;38468;48.114;-1.684;2022-12-07T06:04:10;20.23;;;12.90;;
52574;SDS011;38468;48.114;-1.684;2022-12-07T06:06:11;18.27;;;11.07;;
52574;SDS011;38468;48.114;-1.684;2022-12-07T06:08:12;21.45;;;12.93;;
52574;SDS011;38468;48.114;-1.684;2022-12-07T06:10:14;17.45;;;12.75;;
52574;SDS011;38468;48.114;-1.684;2022-12-07T06:12:15;18.48;;;11.00;;
52574;SDS011;38468;48.114;-1.684;2022-12-07T06:14:35;18.88;;;12.50;;
52574;SDS011;38468;48.114;-1.684;2022-12-07T06:16:36;18.10;;;10.55;;
52574;SDS011;38468;48.114;-1.684;2022-12-07T06:18:36;14.43;;;11.00;;
52574;SDS011;38468;48.114;-1.684;2022-12-07T06:20:37;16.02;;;10.70;;
52574;SDS011;38468;48.114;-1.684;2022-12-07T06:22:38;13.80;;;10.00;;
52574;SDS011;38468;48.114;-1.684;2022-12-07T06:24:38;15.25;;;10.23;;
52574;SDS011;38468;48.114;-1.684;2022-12-07T06:26:40;20.58;;;12.85;;
52574;SDS011;38468;48.114;-1.684;2022-12-07T06:28:41;37.58;;;21.30;;
52574;SDS011;38468;48.114;-1.684;2022-12-07T06:30:42;25.25;;;15.13;;
52574;SDS011;38468;48.114;-1.684;2022-12-07T06:32:42;19.65;;;12.30;;
52574;SDS011;38468;48.114;-1.684;2022-12-07T06:34:43;18.17;;;11.55;;
52574;SDS011;38468;48.114;-1.684;2022-12-07T06:36:44;18.50;;;11.65;;
52574;SDS011;38468;48.114;-1.684;2022-12-07T06:38:45;17.17;;;12.10;;
52574;SDS011;38468;48.114;-1.684;2022-12-07T06:40:45;16.23;;;10.63;;
52574;SDS011;38468;48.114;-1.684;2022-12-07T06:42:46;16.48;;;10.43;;
52574;SDS011;38468;48.114;-1.684;2022-12-07T06:44:47;17.75;;;10.20;;
52574;SDS011;38468;48.114;-1.684;2022-12-07T06:46:48;16.13;;;10.25;;
52574;SDS011;38468;48.114;-1.684;2022-12-07T06:48:49;17.00;;;11.27;;
52574;SDS011;38468;48.114;-1.684;2022-12-07T06:50:50;13.07;;;9.25;;
52574;SDS011;38468;48.114;-1.684;2022-12-07T06:52:50;15.05;;;9.82;;
52574;SDS011;38468;48.114;-1.684;2022-12-07T06:54:52;15.63;;;10.40;;
52574;SDS011;38468;48.114;-1.684;2022-12-07T06:56:52;27.10;;;17.70;;
52574;SDS011;38468;48.114;-1.684;2022-12-07T06:58:53;31.20;;;18.38;;
52574;SDS011;38468;48.114;-1.684;2022-12-07T07:00:54;33.95;;;19.70;;
52574;SDS011;38468;48.114;-1.684;2022-12-07T07:02:55;19.42;;;11.73;;
52574;SDS011;38468;48.114;-1.684;2022-12-07T07:04:55;15.40;;;10.13;;
52574;SDS011;38468;48.114;-1.684;2022-12-07T07:06:56;18.30;;;11.23;;
52574;SDS011;38468;48.114;-1.684;2022-12-07T07:08:56;14.48;;;10.35;;
52574;SDS011;38468;48.114;-1.684;2022-12-07T07:10:57;18.38;;;11.15;;
52574;SDS011;38468;48.114;-1.684;2022-12-07T07:12:58;15.63;;;10.63;;
52574;SDS011;38468;48.114;-1.684;2022-12-07T07:14:58;18.63;;;12.25;;
52574;SDS011;38468;48.114;-1.684;2022-12-07T07:16:59;16.30;;;11.05;;
52574;SDS011;38468;48.114;-1.684;2022-12-07T07:19:00;16.90;;;11.60;;
52574;SDS011;38468;48.114;-1.684;2022-12-07T07:21:00;16.70;;;11.85;;
52574;SDS011;38468;48.114;-1.684;2022-12-07T07:23:01;18.23;;;11.80;;
52574;SDS011;38468;48.114;-1.684;2022-12-07T07:25:03;20.25;;;11.30;;
52574;SDS011;38468;48.114;-1.684;2022-12-07T07:27:04;16.42;;;10.75;;
52574;SDS011;38468;48.114;-1.684;2022-12-07T07:29:04;16.60;;;10.57;;
52574;SDS011;38468;48.114;-1.684;2022-12-07T07:31:05;16.13;;;10.73;;
52574;SDS011;38468;48.114;-1.684;2022-12-07T07:33:06;16.20;;;10.52;;
52574;SDS011;38468;48.114;-1.684;2022-12-07T07:35:07;15.15;;;11.15;;
52574;SDS011;38468;48.114;-1.684;2022-12-07T07:37:08;16.83;;;10.25;;
52574;SDS011;38468;48.114;-1.684;2022-12-07T07:39:10;16.70;;;10.88;;
52574;SDS011;38468;48.114;-1.684;2022-12-07T07:41:14;17.33;;;10.32;;
52574;SDS011;38468;48.114;-1.684;2022-12-07T07:43:15;15.30;;;10.40;;
52574;SDS011;38468;48.114;-1.684;2022-12-07T07:45:15;20.27;;;10.63;;
52574;SDS011;38468;48.114;-1.684;2022-12-07T07:47:16;18.65;;;11.40;;
52574;SDS011;38468;48.114;-1.684;2022-12-07T07:49:17;16.35;;;11.38;;
52574;SDS011;38468;48.114;-1.684;2022-12-07T07:51:18;16.92;;;10.65;;
52574;SDS011;38468;48.114;-1.684;2022-12-07T07:53:18;38.60;;;24.48;;
52574;SDS011;38468;48.114;-1.684;2022-12-07T07:55:19;17.85;;;12.48;;
52574;SDS011;38468;48.114;-1.684;2022-12-07T07:57:20;15.80;;;11.02;;
52574;SDS011;38468;48.114;-1.684;2022-12-07T07:59:20;22.45;;;11.73;;
52574;SDS011;38468;48.114;-1.684;2022-12-07T08:01:21;16.00;;;11.48;;
52574;SDS011;38468;48.114;-1.684;2022-12-07T08:03:22;16.08;;;10.18;;
52574;SDS011;38468;48.114;-1.684;2022-12-07T08:05:22;17.20;;;10.38;;
52574;SDS011;38468;48.114;-1.684;2022-12-07T08:07:23;17.75;;;9.77;;
52574;SDS011;38468;48.114;-1.684;2022-12-07T08:09:24;16.35;;;10.68;;
52574;SDS011;38468;48.114;-1.684;2022-12-07T08:11:24;14.95;;;10.13;;
52574;SDS011;38468;48.114;-1.684;2022-12-07T08:13:25;17.60;;;10.77;;
52574;SDS011;38468;48.114;-1.684;2022-12-07T08:15:26;19.45;;;11.82;;
52574;SDS011;38468;48.114;-1.684;2022-12-07T08:19:29;17.40;;;10.10;;
52574;SDS011;38468;48.114;-1.684;2022-12-07T08:21:29;17.65;;;11.50;;
52574;SDS011;38468;48.114;-1.684;2022-12-07T08:23:30;22.08;;;12.77;;
52574;SDS011;38468;48.114;-1.684;2022-12-07T08:25:31;16.15;;;10.95;;
52574;SDS011;38468;48.114;-1.684;2022-12-07T08:27:32;15.18;;;10.52;;
52574;SDS011;38468;48.114;-1.684;2022-12-07T08:29:33;13.80;;;9.73;;
52574;SDS011;38468;48.114;-1.684;2022-12-07T08:31:33;19.25;;;11.25;;
52574;SDS011;38468;48.114;-1.684;2022-12-07T08:33:35;13.57;;;8.65;;
52574;SDS011;38468;48.114;-1.684;2022-12-07T08:35:36;13.20;;;8.88;;
52574;SDS011;38468;48.114;-1.684;2022-12-07T08:37:36;20.83;;;8.30;;
52574;SDS011;38468;48.114;-1.684;2022-12-07T08:39:37;11.40;;;7.65;;
52574;SDS011;38468;48.114;-1.684;2022-12-07T08:41:38;11.35;;;8.60;;
52574;SDS011;38468;48.114;-1.684;2022-12-07T08:43:39;12.82;;;8.20;;
52574;SDS011;38468;48.114;-1.684;2022-12-07T08:45:39;11.32;;;8.25;;
52574;SDS011;38468;48.114;-1.684;2022-12-07T08:47:42;16.17;;;8.30;;
52574;SDS011;38468;48.114;-1.684;2022-12-07T08:49:46;12.98;;;8.70;;
52574;SDS011;38468;48.114;-1.684;2022-12-07T08:51:50;13.13;;;7.70;;
52574;SDS011;38468;48.114;-1.684;2022-12-07T08:53:51;11.25;;;8.23;;
52574;SDS011;38468;48.114;-1.684;2022-12-07T08:55:53;12.93;;;8.27;;
52574;SDS011;38468;48.114;-1.684;2022-12-07T08:57:55;15.40;;;9.75;;
52574;SDS011;38468;48.114;-1.684;2022-12-07T08:59:58;14.77;;;8.85;;
52574;SDS011;38468;48.114;-1.684;2022-12-07T09:01:59;11.23;;;8.77;;
52574;SDS011;38468;48.114;-1.684;2022-12-07T09:03:59;10.60;;;7.75;;
52574;SDS011;38468;48.114;-1.684;2022-12-07T09:06:00;9.90;;;8.32;;
52574;SDS011;38468;48.114;-1.684;2022-12-07T09:08:01;11.65;;;8.68;;
52574;SDS011;38468;48.114;-1.684;2022-12-07T09:10:02;11.80;;;8.57;;
52574;SDS011;38468;48.114;-1.684;2022-12-07T09:12:03;11.55;;;9.30;;
52574;SDS011;38468;48.114;-1.684;2022-12-07T09:14:04;20.50;;;8.70;;
52574;SDS011;38468;48.114;-1.684;2022-12-07T09:16:05;14.32;;;8.05;;
52574;SDS011;38468;48.114;-1.684;2022-12-07T09:18:06;14.10;;;9.00;;
52574;SDS011;38468;48.114;-1.684;2022-12-07T09:20:07;12.77;;;9.05;;
52574;SDS011;38468;48.114;-1.684;2022-12-07T09:22:08;9.68;;;7.53;;
52574;SDS011;38468;48.114;-1.684;2022-12-07T09:24:09;10.80;;;8.10;;
52574;SDS011;38468;48.114;-1.684;2022-12-07T09:26:09;11.10;;;9.07;;
52574;SDS011;38468;48.114;-1.684;2022-12-07T09:28:10;11.75;;;9.65;;
52574;SDS011;38468;48.114;-1.684;2022-12-07T09:30:11;12.32;;;9.75;;
52574;SDS011;38468;48.114;-1.684;2022-12-07T09:32:12;13.77;;;10.48;;
52574;SDS011;38468;48.114;-1.684;2022-12-07T09:34:13;34.05;;;22.75;;
52574;SDS011;38468;48.114;-1.684;2022-12-07T09:36:14;14.05;;;11.00;;
52574;SDS011;38468;48.114;-1.684;2022-12-07T09:38:14;12.23;;;9.48;;
52574;SDS011;38468;48.114;-1.684;2022-12-07T09:40:16;13.00;;;9.88;;
52574;SDS011;38468;48.114;-1.684;2022-12-07T09:42:29;11.55;;;9.02;;
52574;SDS011;38468;48.114;-1.684;2022-12-07T09:44:35;13.45;;;9.10;;
52574;SDS011;38468;48.114;-1.684;2022-12-07T09:46:36;13.90;;;9.10;;
52574;SDS011;38468;48.114;-1.684;2022-12-07T09:48:40;11.52;;;7.97;;
52574;SDS011;38468;48.114;-1.684;2022-12-07T09:50:43;11.95;;;9.15;;
52574;SDS011;38468;48.114;-1.684;2022-12-07T09:52:44;14.23;;;9.80;;
52574;SDS011;38468;48.114;-1.684;2022-12-07T09:54:48;15.05;;;9.15;;
52574;SDS011;38468;48.114;-1.684;2022-12-07T09:56:50;11.85;;;9.18;;
52574;SDS011;38468;48.114;-1.684;2022-12-07T09:58:54;11.70;;;8.48;;
52574;SDS011;38468;48.114;-1.684;2022-12-07T10:03:07;11.20;;;9.10;;
52574;SDS011;38468;48.114;-1.684;2022-12-07T10:05:12;12.88;;;8.20;;
52574;SDS011;38468;48.114;-1.684;2022-12-07T10:07:15;10.20;;;8.52;;
52574;SDS011;38468;48.114;-1.684;2022-12-07T10:09:16;11.00;;;8.75;;
52574;SDS011;38468;48.114;-1.684;2022-12-07T10:11:18;10.15;;;8.27;;
52574;SDS011;38468;48.114;-1.684;2022-12-07T10:13:20;12.57;;;8.82;;
52574;SDS011;38468;48.114;-1.684;2022-12-07T10:17:47;9.85;;;8.85;;
52574;SDS011;38468;48.114;-1.684;2022-12-07T10:19:49;9.95;;;8.80;;
52574;SDS011;38468;48.114;-1.684;2022-12-07T10:24:14;11.32;;;9.32;;
52574;SDS011;38468;48.114;-1.684;2022-12-07T10:28:33;13.35;;;9.68;;
52574;SDS011;38468;48.114;-1.684;2022-12-07T10:32:59;12.70;;;9.88;;
52574;SDS011;38468;48.114;-1.684;2022-12-07T10:37:30;12.65;;;9.57;;
52574;SDS011;38468;48.114;-1.684;2022-12-07T10:41:57;12.93;;;9.80;;
52574;SDS011;38468;48.114;-1.684;2022-12-07T10:43:59;11.18;;;9.65;;
52574;SDS011;38468;48.114;-1.684;2022-12-07T10:49:01;13.85;;;10.68;;
52574;SDS011;38468;48.114;-1.684;2022-12-07T11:00:15;15.57;;;10.98;;
52574;SDS011;38468;48.114;-1.684;2022-12-07T11:02:44;15.68;;;12.40;;
52574;SDS011;38468;48.114;-1.684;2022-12-07T11:09:17;15.30;;;11.07;;
52574;SDS011;38468;48.114;-1.684;2022-12-07T11:11:33;14.00;;;11.32;;
52574;SDS011;38468;48.114;-1.684;2022-12-07T11:20:51;16.10;;;11.55;;
52574;SDS011;38468;48.114;-1.684;2022-12-07T11:30:28;15.05;;;10.82;;
52574;SDS011;38468;48.114;-1.684;2022-12-07T11:32:47;12.95;;;10.50;;
52574;SDS011;38468;48.114;-1.684;2022-12-07T11:35:09;12.65;;;9.43;;
52574;SDS011;38468;48.114;-1.684;2022-12-07T11:37:18;14.35;;;8.88;;
52574;SDS011;38468;48.114;-1.684;2022-12-07T11:41:34;13.77;;;9.70;;
52574;SDS011;38468;48.114;-1.684;2022-12-07T11:43:37;13.60;;;9.48;;
52574;SDS011;38468;48.114;-1.684;2022-12-07T11:48:10;13.77;;;10.52;;
52574;SDS011;38468;48.114;-1.684;2022-12-07T11:52:58;15.93;;;11.77;;
52574;SDS011;38468;48.114;-1.684;2022-12-07T11:55:17;16.73;;;10.75;;
52574;SDS011;38468;48.114;-1.684;2022-12-07T11:57:35;13.43;;;11.45;;
52574;SDS011;38468;48.114;-1.684;2022-12-07T11:59:43;16.08;;;11.93;;
52574;SDS011;38468;48.114;-1.684;2022-12-07T12:03:58;13.68;;;11.02;;
52574;SDS011;38468;48.114;-1.684;2022-12-07T12:06:10;13.82;;;11.18;;
52574;SDS011;38468;48.114;-1.684;2022-12-07T12:10:22;18.23;;;12.18;;
52574;SDS011;38468;48.114;-1.684;2022-12-07T12:22:17;34.10;;;19.95;;
52574;SDS011;38468;48.114;-1.684;2022-12-07T12:24:22;26.80;;;19.88;;
52574;SDS011;38468;48.114;-1.684;2022-12-07T12:26:26;28.40;;;20.15;;
52574;SDS011;38468;48.114;-1.684;2022-12-07T12:30:41;32.25;;;20.77;;
52574;SDS011;38468;48.114;-1.684;2022-12-07T12:32:42;30.30;;;20.73;;
52574;SDS011;38468;48.114;-1.684;2022-12-07T12:36:48;27.35;;;18.85;;
52574;SDS011;38468;48.114;-1.684;2022-12-07T12:40:59;30.55;;;20.08;;
52574;SDS011;38468;48.114;-1.684;2022-12-07T12:43:01;25.75;;;19.00;;
52574;SDS011;38468;48.114;-1.684;2022-12-07T12:45:18;25.40;;;17.05;;
52574;SDS011;38468;48.114;-1.684;2022-12-07T12:49:43;27.10;;;18.50;;
52574;SDS011;38468;48.114;-1.684;2022-12-07T12:54:26;24.60;;;18.27;;
52574;SDS011;38468;48.114;-1.684;2022-12-07T12:56:33;27.23;;;18.58;;
52574;SDS011;38468;48.114;-1.684;2022-12-07T13:03:51;15.93;;;13.73;;
52574;SDS011;38468;48.114;-1.684;2022-12-07T13:08:32;14.88;;;12.15;;
52574;SDS011;38468;48.114;-1.684;2022-12-07T13:12:36;15.48;;;13.35;;
52574;SDS011;38468;48.114;-1.684;2022-12-07T13:16:40;13.48;;;11.73;;
52574;SDS011;38468;48.114;-1.684;2022-12-07T13:18:41;15.45;;;12.40;;
52574;SDS011;38468;48.114;-1.684;2022-12-07T13:20:43;13.73;;;11.27;;
52574;SDS011;38468;48.114;-1.684;2022-12-07T13:22:46;15.15;;;12.95;;
52574;SDS011;38468;48.114;-1.684;2022-12-07T13:24:49;15.52;;;12.20;;
52574;SDS011;38468;48.114;-1.684;2022-12-07T13:26:55;12.35;;;11.02;;
52574;SDS011;38468;48.114;-1.684;2022-12-07T13:31:12;14.25;;;12.55;;
52574;SDS011;38468;48.114;-1.684;2022-12-07T13:33:24;18.75;;;13.93;;
52574;SDS011;38468;48.114;-1.684;2022-12-07T13:35:29;17.85;;;13.18;;
52574;SDS011;38468;48.114;-1.684;2022-12-07T13:37:32;17.25;;;12.57;;
52574;SDS011;38468;48.114;-1.684;2022-12-07T13:39:33;16.10;;;12.18;;
52574;SDS011;38468;48.114;-1.684;2022-12-07T13:41:44;14.05;;;10.38;;
52574;SDS011;38468;48.114;-1.684;2022-12-07T13:44:10;14.02;;;11.27;;
52574;SDS011;38468;48.114;-1.684;2022-12-07T13:46:11;12.95;;;10.05;;
52574;SDS011;38468;48.114;-1.684;2022-12-07T13:48:51;13.95;;;11.27;;
52574;SDS011;38468;48.114;-1.684;2022-12-07T13:50:55;15.52;;;10.35;;
52574;SDS011;38468;48.114;-1.684;2022-12-07T13:52:58;15.48;;;10.48;;
52574;SDS011;38468;48.114;-1.684;2022-12-07T13:57:06;19.95;;;12.18;;
52574;SDS011;38468;48.114;-1.684;2022-12-07T13:59:15;17.75;;;11.50;;
52574;SDS011;38468;48.114;-1.684;2022-12-07T14:01:21;16.77;;;11.95;;
52574;SDS011;38468;48.114;-1.684;2022-12-07T14:03:25;16.25;;;12.07;;
52574;SDS011;38468;48.114;-1.684;2022-12-07T14:05:32;12.93;;;10.32;;
52574;SDS011;38468;48.114;-1.684;2022-12-07T14:07:34;12.60;;;10.90;;
52574;SDS011;38468;48.114;-1.684;2022-12-07T14:09:36;12.52;;;9.75;;